Time,TemperatureF,DewpointF,PressureIn,WindDirection,WindDirectionDegrees,WindSpeedMPH,WindSpeedGustMPH,Humidity,HourlyPrecipIn,Conditions,Clouds,dailyrainin,SoftwareType,DateUTC
2013-06-15 00:02:00,60.8,54.3,29.35,SE,135,58.0,58.0,79,0.00,,OVC015,0.00,VWS V14.01,2013-06-15 07:02:00,
2013-06-15 00:07:00,61.0,54.4,29.35,SE,135,58.0,58.0,79,0.00,,OVC015,0.00,VWS V14.01,2013-06-15 07:07:00,
2013-06-15 00:12:00,61.0,54.4,29.35,SE,135,58.0,58.0,79,0.00,,OVC015,0.00,VWS V14.01,2013-06-15 07:12:00,
2013-06-15 00:17:00,61.0,54.4,29.35,SE,135,58.0,58.0,79,0.00,,OVC015,0.00,VWS V14.01,2013-06-15 07:17:00,
2013-06-15 00:22:00,61.0,54.1,29.35,SE,135,58.0,58.0,78,0.00,,OVC015,0.00,VWS V14.01,2013-06-15 07:22:00,
2013-06-15 00:27:00,61.0,54.1,29.35,SE,135,58.0,58.0,78,0.00,,OVC015,0.00,VWS V14.01,2013-06-15 07:27:00,
2013-06-15 00:32:00,61.0,54.4,29.35,SE,135,58.0,58.0,79,0.00,,OVC015,0.00,VWS V14.01,2013-06-15 07:32:00,
2013-06-15 00:37:00,60.8,54.3,29.35,SE,135,58.0,58.0,79,0.00,,OVC015,0.00,VWS V14.01,2013-06-15 07:37:00,
2013-06-15 00:42:00,60.6,54.4,29.35,SE,135,58.0,58.0,80,0.00,,OVC015,0.00,VWS V14.01,2013-06-15 07:42:00,
2013-06-15 00:47:00,60.6,54.1,29.35,SE,135,58.0,58.0,79,0.00,,OVC015,0.00,VWS V14.01,2013-06-15 07:47:00,
2013-06-15 00:52:00,60.6,54.4,29.35,SE,135,58.0,58.0,80,0.00,,OVC015,0.00,VWS V14.01,2013-06-15 07:52:00,
2013-06-15 00:57:00,60.4,54.2,29.35,SE,135,58.0,58.0,80,0.00,,OVC015,0.00,VWS V14.01,2013-06-15 07:57:00,
2013-06-15 01:02:00,60.4,54.2,29.35,SE,135,58.0,58.0,80,0.00,,OVC015,0.00,VWS V14.01,2013-06-15 08:02:00,
2013-06-15 01:07:00,60.4,54.2,29.35,SE,135,58.0,58.0,80,0.00,,OVC015,0.00,VWS V14.01,2013-06-15 08:07:00,
2013-06-15 01:12:00,60.4,54.2,29.35,SE,135,58.0,58.0,80,0.00,,OVC015,0.00,VWS V14.01,2013-06-15 08:12:00,
2013-06-15 01:17:00,60.6,54.8,29.38,SE,135,58.0,58.0,81,0.00,,OVC015,0.00,VWS V14.01,2013-06-15 08:17:00,
2013-06-15 01:22:00,60.4,54.2,29.38,SE,135,58.0,58.0,80,0.00,,OVC015,0.00,VWS V14.01,2013-06-15 08:22:00,
2013-06-15 01:27:00,60.4,54.2,29.38,SE,135,58.0,58.0,80,0.00,,OVC015,0.00,VWS V14.01,2013-06-15 08:27:00,
2013-06-15 01:32:00,60.4,54.2,29.35,SE,135,58.0,58.0,80,0.00,,OVC015,0.00,VWS V14.01,2013-06-15 08:32:00,
2013-06-15 01:37:00,60.4,54.6,29.35,SE,135,58.0,58.0,81,0.00,,OVC015,0.00,VWS V14.01,2013-06-15 08:37:00,
2013-06-15 01:42:00,60.4,54.2,29.35,SE,135,58.0,58.0,80,0.00,,OVC015,0.00,VWS V14.01,2013-06-15 08:42:00,
2013-06-15 01:47:00,60.4,54.6,29.35,SE,135,58.0,58.0,81,0.00,,OVC015,0.00,VWS V14.01,2013-06-15 08:47:00,
2013-06-15 01:52:00,60.4,54.2,29.35,SE,135,58.0,58.0,80,0.00,,OVC015,0.00,VWS V14.01,2013-06-15 08:52:00,
2013-06-15 01:57:00,60.6,54.8,29.35,SE,135,58.0,58.0,81,0.00,,OVC015,0.00,VWS V14.01,2013-06-15 08:57:00,
2013-06-15 02:02:00,60.6,54.4,29.35,SE,135,58.0,58.0,80,0.00,,OVC015,0.00,VWS V14.01,2013-06-15 09:02:00,
2013-06-15 02:07:00,60.6,54.8,29.35,SE,135,58.0,58.0,81,0.00,,OVC015,0.00,VWS V14.01,2013-06-15 09:07:00,
2013-06-15 02:12:00,60.6,54.8,29.35,SE,135,58.0,58.0,81,0.00,,OVC015,0.00,VWS V14.01,2013-06-15 09:12:00,
2013-06-15 02:17:00,60.6,54.8,29.35,SE,135,58.0,58.0,81,0.00,,OVC015,0.00,VWS V14.01,2013-06-15 09:17:00,
2013-06-15 02:22:00,60.6,54.8,29.35,SE,135,58.0,58.0,81,0.00,,OVC015,0.00,VWS V14.01,2013-06-15 09:22:00,
2013-06-15 02:27:00,60.4,54.6,29.35,SE,135,58.0,58.0,81,0.00,,OVC015,0.00,VWS V14.01,2013-06-15 09:27:00,
2013-06-15 02:32:00,60.4,54.6,29.35,SE,135,58.0,58.0,81,0.00,,OVC015,0.00,VWS V14.01,2013-06-15 09:32:00,
2013-06-15 02:37:00,60.4,54.6,29.35,SE,135,58.0,58.0,81,0.00,,OVC015,0.00,VWS V14.01,2013-06-15 09:37:00,
2013-06-15 02:42:00,60.4,54.6,29.35,SE,135,58.0,58.0,81,0.00,,OVC015,0.00,VWS V14.01,2013-06-15 09:42:00,
2013-06-15 02:47:00,60.4,54.6,29.35,SE,135,58.0,58.0,81,0.00,,OVC015,0.00,VWS V14.01,2013-06-15 09:47:00,
2013-06-15 02:53:00,60.4,54.6,29.35,SE,135,58.0,58.0,81,0.00,,OVC015,0.00,VWS V14.01,2013-06-15 09:53:00,
2013-06-15 02:57:00,60.4,54.6,29.35,SE,135,58.0,58.0,81,0.00,,OVC015,0.00,VWS V14.01,2013-06-15 09:57:00,
2013-06-15 03:02:00,60.4,54.6,29.35,SE,135,58.0,58.0,81,0.00,,OVC015,0.00,VWS V14.01,2013-06-15 10:02:00,
2013-06-15 03:07:00,60.4,54.6,29.35,SE,135,58.0,58.0,81,0.00,,OVC015,0.00,VWS V14.01,2013-06-15 10:07:00,
2013-06-15 03:12:00,60.4,54.6,29.35,SE,135,58.0,58.0,81,0.00,,OVC015,0.00,VWS V14.01,2013-06-15 10:12:00,
2013-06-15 03:17:00,60.4,54.6,29.35,SE,135,58.0,58.0,81,0.00,,OVC015,0.00,VWS V14.01,2013-06-15 10:17:00,
2013-06-15 03:22:00,60.4,54.6,29.35,SE,135,58.0,58.0,81,0.00,,OVC015,0.00,VWS V14.01,2013-06-15 10:22:00,
2013-06-15 03:27:00,60.4,54.9,29.35,SE,135,58.0,58.0,82,0.00,,OVC015,0.00,VWS V14.01,2013-06-15 10:27:00,
2013-06-15 03:32:00,60.4,54.6,29.35,SE,135,58.0,58.0,81,0.00,,OVC015,0.00,VWS V14.01,2013-06-15 10:32:00,
2013-06-15 03:38:00,60.4,54.6,29.35,SE,135,58.0,58.0,81,0.00,,OVC015,0.00,VWS V14.01,2013-06-15 10:38:00,
2013-06-15 03:43:00,60.4,54.9,29.35,SE,135,58.0,58.0,82,0.00,,OVC015,0.00,VWS V14.01,2013-06-15 10:43:00,
2013-06-15 03:48:00,60.3,54.8,29.35,SE,135,58.0,58.0,82,0.00,,OVC015,0.00,VWS V14.01,2013-06-15 10:48:00,
2013-06-15 03:53:00,60.3,54.8,29.35,SE,135,58.0,58.0,82,0.00,,OVC015,0.00,VWS V14.01,2013-06-15 10:53:00,
2013-06-15 03:57:00,60.3,54.4,29.35,SE,135,58.0,58.0,81,0.00,,OVC015,0.00,VWS V14.01,2013-06-15 10:57:00,
2013-06-15 04:02:00,60.3,54.8,29.35,SE,135,58.0,58.0,82,0.00,,OVC015,0.00,VWS V14.01,2013-06-15 11:02:00,
2013-06-15 04:07:00,60.3,54.8,29.35,SE,135,58.0,58.0,82,0.00,,OVC015,0.00,VWS V14.01,2013-06-15 11:07:00,
2013-06-15 04:12:00,60.1,54.6,29.35,SE,135,58.0,58.0,82,0.00,,OVC015,0.00,VWS V14.01,2013-06-15 11:12:00,
2013-06-15 04:17:00,60.1,54.6,29.38,SE,135,58.0,58.0,82,0.00,,OVC015,0.00,VWS V14.01,2013-06-15 11:17:00,
2013-06-15 04:23:00,60.1,54.6,29.38,SE,135,58.0,58.0,82,0.00,,OVC015,0.00,VWS V14.01,2013-06-15 11:23:00,
2013-06-15 04:28:00,60.1,54.6,29.38,SE,135,58.0,58.0,82,0.00,,OVC015,0.00,VWS V14.01,2013-06-15 11:28:00,
2013-06-15 04:33:00,60.1,54.6,29.35,SE,135,58.0,58.0,82,0.00,,OVC015,0.00,VWS V14.01,2013-06-15 11:33:00,
2013-06-15 04:38:00,60.1,54.6,29.35,SE,135,58.0,58.0,82,0.00,,OVC015,0.00,VWS V14.01,2013-06-15 11:38:00,
2013-06-15 04:43:00,60.1,54.6,29.35,SE,135,58.0,58.0,82,0.00,,OVC015,0.00,VWS V14.01,2013-06-15 11:43:00,
2013-06-15 04:48:00,60.1,54.6,29.38,SE,135,58.0,58.0,82,0.00,,OVC015,0.00,VWS V14.01,2013-06-15 11:48:00,
2013-06-15 04:53:00,59.9,54.4,29.38,SE,135,58.0,58.0,82,0.00,,OVC015,0.00,VWS V14.01,2013-06-15 11:53:00,
2013-06-15 04:58:00,59.9,54.4,29.38,SE,135,58.0,58.0,82,0.00,,OVC015,0.00,VWS V14.01,2013-06-15 11:58:00,
2013-06-15 05:03:00,59.9,54.4,29.38,SE,135,58.0,58.0,82,0.00,,OVC015,0.00,VWS V14.01,2013-06-15 12:03:00,
2013-06-15 05:08:00,59.9,54.4,29.38,SE,135,58.0,58.0,82,0.00,,OVC015,0.00,VWS V14.01,2013-06-15 12:08:00,
2013-06-15 05:13:00,59.9,54.4,29.38,SE,135,58.0,58.0,82,0.00,,OVC015,0.00,VWS V14.01,2013-06-15 12:13:00,
2013-06-15 05:18:00,59.7,54.2,29.38,SE,135,58.0,58.0,82,0.00,,OVC015,0.00,VWS V14.01,2013-06-15 12:18:00,
2013-06-15 05:23:00,59.9,54.7,29.38,SE,135,58.0,58.0,83,0.00,,OVC015,0.00,VWS V14.01,2013-06-15 12:23:00,
2013-06-15 05:28:00,59.7,54.6,29.38,SE,135,58.0,58.0,83,0.00,,OVC015,0.00,VWS V14.01,2013-06-15 12:28:00,
2013-06-15 05:33:00,59.9,54.7,29.38,SE,135,58.0,58.0,83,0.00,,OVC015,0.00,VWS V14.01,2013-06-15 12:33:00,
2013-06-15 05:38:00,59.9,54.7,29.38,SE,135,58.0,58.0,83,0.00,,OVC015,0.00,VWS V14.01,2013-06-15 12:38:00,
2013-06-15 05:43:00,59.9,54.7,29.38,SE,135,58.0,58.0,83,0.00,,OVC015,0.00,VWS V14.01,2013-06-15 12:43:00,
2013-06-15 05:48:00,59.9,54.7,29.38,SE,135,58.0,58.0,83,0.00,,OVC015,0.00,VWS V14.01,2013-06-15 12:48:00,
2013-06-15 05:53:00,59.9,54.7,29.38,SE,135,58.0,58.0,83,0.00,,OVC015,0.00,VWS V14.01,2013-06-15 12:53:00,
2013-06-15 05:58:00,59.9,54.7,29.38,SE,135,58.0,58.0,83,0.00,,OVC015,0.00,VWS V14.01,2013-06-15 12:58:00,
2013-06-15 06:03:00,59.9,54.7,29.38,SE,135,58.0,58.0,83,0.00,,OVC015,0.00,VWS V14.01,2013-06-15 13:03:00,
2013-06-15 06:08:00,59.7,54.6,29.38,SE,135,58.0,58.0,83,0.00,,OVC015,0.00,VWS V14.01,2013-06-15 13:08:00,
2013-06-15 06:13:00,59.7,54.6,29.38,SE,135,58.0,58.0,83,0.00,,OVC015,0.00,VWS V14.01,2013-06-15 13:13:00,
2013-06-15 06:18:00,59.7,54.6,29.38,SE,135,58.0,58.0,83,0.00,,OVC015,0.00,VWS V14.01,2013-06-15 13:18:00,
2013-06-15 06:23:00,59.7,54.9,29.38,SE,135,58.0,58.0,84,0.00,,OVC015,0.00,VWS V14.01,2013-06-15 13:23:00,
2013-06-15 06:28:00,59.7,54.6,29.38,SE,135,58.0,58.0,83,0.00,,OVC015,0.00,VWS V14.01,2013-06-15 13:28:00,
2013-06-15 06:33:00,59.9,54.7,29.38,SE,135,58.0,58.0,83,0.00,,OVC015,0.00,VWS V14.01,2013-06-15 13:33:00,
2013-06-15 06:38:00,59.9,55.1,29.38,SE,135,58.0,58.0,84,0.00,,OVC015,0.00,VWS V14.01,2013-06-15 13:38:00,
2013-06-15 06:43:00,59.9,54.7,29.38,SE,135,58.0,58.0,83,0.00,,OVC015,0.00,VWS V14.01,2013-06-15 13:43:00,
2013-06-15 06:48:00,59.9,54.7,29.38,SE,135,58.0,58.0,83,0.00,,OVC015,0.00,VWS V14.01,2013-06-15 13:48:00,
2013-06-15 06:53:00,59.7,54.2,29.38,SE,135,58.0,58.0,82,0.00,,OVC015,0.00,VWS V14.01,2013-06-15 13:53:00,
2013-06-15 06:58:00,59.7,54.2,29.38,SE,135,58.0,58.0,82,0.00,,OVC015,0.00,VWS V14.01,2013-06-15 13:58:00,
2013-06-15 07:03:00,59.7,54.2,29.41,SE,135,58.0,58.0,82,0.00,,OVC015,0.00,VWS V14.01,2013-06-15 14:03:00,
2013-06-15 07:08:00,59.9,54.7,29.41,SE,135,58.0,58.0,83,0.00,,OVC015,0.00,VWS V14.01,2013-06-15 14:08:00,
2013-06-15 07:13:00,59.9,54.7,29.41,SE,135,58.0,58.0,83,0.00,,OVC015,0.00,VWS V14.01,2013-06-15 14:13:00,
2013-06-15 07:18:00,60.1,54.6,29.41,SE,135,58.0,58.0,82,0.00,,OVC015,0.00,VWS V14.01,2013-06-15 14:18:00,
2013-06-15 07:23:00,60.1,54.6,29.41,SE,135,58.0,58.0,82,0.00,,OVC015,0.00,VWS V14.01,2013-06-15 14:23:00,
2013-06-15 07:28:00,60.4,54.9,29.41,SE,135,58.0,58.0,82,0.00,,OVC015,0.00,VWS V14.01,2013-06-15 14:28:00,
2013-06-15 07:33:00,60.4,54.9,29.38,SE,135,58.0,58.0,82,0.00,,OVC015,0.00,VWS V14.01,2013-06-15 14:33:00,
2013-06-15 07:38:00,60.6,54.8,29.38,SE,135,58.0,58.0,81,0.00,,OVC015,0.00,VWS V14.01,2013-06-15 14:38:00,
2013-06-15 07:43:00,60.8,54.9,29.38,SE,135,58.0,58.0,81,0.00,,OVC015,0.00,VWS V14.01,2013-06-15 14:43:00,
2013-06-15 07:48:00,61.0,55.1,29.41,SE,135,58.0,58.0,81,0.00,,OVC015,0.00,VWS V14.01,2013-06-15 14:48:00,
2013-06-15 07:53:00,61.2,55.0,29.41,SE,135,58.0,58.0,80,0.00,,OVC015,0.00,VWS V14.01,2013-06-15 14:53:00,
2013-06-15 07:58:00,61.5,55.3,29.41,SE,135,58.0,58.0,80,0.00,,OVC015,0.00,VWS V14.01,2013-06-15 14:58:00,
2013-06-15 08:03:00,61.9,55.7,29.41,SE,135,58.0,58.0,80,0.00,,OVC017,0.00,VWS V14.01,2013-06-15 15:03:00,
2013-06-15 08:08:00,62.2,55.3,29.41,SE,135,58.0,58.0,78,0.00,,OVC017,0.00,VWS V14.01,2013-06-15 15:08:00,
2013-06-15 08:13:00,62.6,55.3,29.41,SE,135,58.0,58.0,77,0.00,,OVC017,0.00,VWS V14.01,2013-06-15 15:13:00,
2013-06-15 08:18:00,63.0,55.3,29.41,SE,135,58.0,58.0,76,0.00,,OVC017,0.00,VWS V14.01,2013-06-15 15:18:00,
2013-06-15 08:23:00,63.3,55.6,29.41,SE,135,58.0,58.0,76,0.00,,OVC017,0.00,VWS V14.01,2013-06-15 15:23:00,
2013-06-15 08:28:00,64.0,56.0,29.41,SE,135,58.0,58.0,75,0.00,,OVC017,0.00,VWS V14.01,2013-06-15 15:28:00,
2013-06-15 08:33:00,64.8,56.7,29.44,SE,135,58.0,58.0,75,0.00,,OVC017,0.00,VWS V14.01,2013-06-15 15:33:00,
2013-06-15 08:38:00,65.3,56.0,29.44,SE,135,58.0,58.0,72,0.00,,OVC017,0.00,VWS V14.01,2013-06-15 15:38:00,
2013-06-15 08:43:00,65.7,56.0,29.44,SE,135,58.0,58.0,71,0.00,,OVC017,0.00,VWS V14.01,2013-06-15 15:43:00,
2013-06-15 08:48:00,65.8,55.0,29.41,SE,135,58.0,58.0,68,0.00,,OVC017,0.00,VWS V14.01,2013-06-15 15:48:00,
2013-06-15 08:53:00,65.8,54.6,29.41,SE,135,58.0,58.0,67,0.00,,OVC017,0.00,VWS V14.01,2013-06-15 15:53:00,
2013-06-15 08:58:00,65.8,54.6,29.41,SE,135,58.0,58.0,67,0.00,,OVC017,0.00,VWS V14.01,2013-06-15 15:58:00,
2013-06-15 09:03:00,66.2,54.1,29.44,SE,135,58.0,58.0,65,0.00,,OVC017,0.00,VWS V14.01,2013-06-15 16:03:00,
2013-06-15 09:08:00,66.4,54.7,29.44,SE,135,58.0,58.0,66,0.00,,OVC017,0.00,VWS V14.01,2013-06-15 16:08:00,
2013-06-15 09:13:00,66.6,54.4,29.44,SE,135,58.0,58.0,65,0.00,,OVC017,0.00,VWS V14.01,2013-06-15 16:13:00,
2013-06-15 09:18:00,66.9,54.4,29.44,SE,135,58.0,58.0,64,0.00,,OVC017,0.00,VWS V14.01,2013-06-15 16:18:00,
2013-06-15 09:23:00,67.3,54.3,29.44,SE,135,58.0,58.0,63,0.00,,OVC017,0.00,VWS V14.01,2013-06-15 16:23:00,
2013-06-15 09:28:00,67.5,54.0,29.44,SE,135,58.0,58.0,62,0.00,,OVC017,0.00,VWS V14.01,2013-06-15 16:28:00,
2013-06-15 09:33:00,67.6,53.7,29.44,SE,135,58.0,58.0,61,0.00,,OVC017,0.00,VWS V14.01,2013-06-15 16:33:00,
2013-06-15 09:38:00,68.2,54.2,29.44,SE,135,58.0,58.0,61,0.00,,OVC017,0.00,VWS V14.01,2013-06-15 16:38:00,
2013-06-15 09:43:00,68.4,54.4,29.44,SE,135,58.0,58.0,61,0.00,,OVC017,0.00,VWS V14.01,2013-06-15 16:43:00,
2013-06-15 09:48:00,68.7,54.3,29.44,SE,135,58.0,58.0,60,0.00,,OVC017,0.00,VWS V14.01,2013-06-15 16:48:00,
2013-06-15 09:53:00,69.3,54.3,29.44,SE,135,58.0,58.0,59,0.00,,OVC017,0.00,VWS V14.01,2013-06-15 16:53:00,
2013-06-15 09:58:00,70.0,54.1,29.44,SE,135,58.0,58.0,57,0.00,,OVC017,0.00,VWS V14.01,2013-06-15 16:58:00,
2013-06-15 10:03:00,70.0,53.1,29.44,SE,135,58.0,58.0,55,0.00,,BKN023,0.00,VWS V14.01,2013-06-15 17:03:00,
2013-06-15 10:08:00,70.5,52.6,29.44,SE,135,58.0,58.0,53,0.00,,BKN023,0.00,VWS V14.01,2013-06-15 17:08:00,
2013-06-15 10:13:00,72.0,54.4,29.44,SE,135,58.0,58.0,54,0.00,,BKN023,0.00,VWS V14.01,2013-06-15 17:13:00,
2013-06-15 10:18:00,73.4,55.2,29.44,SE,135,58.0,58.0,53,0.00,,BKN023,0.00,VWS V14.01,2013-06-15 17:18:00,
2013-06-15 10:23:00,74.5,53.5,29.44,SE,135,58.0,58.0,48,0.00,,BKN023,0.00,VWS V14.01,2013-06-15 17:23:00,
2013-06-15 10:28:00,74.7,52.5,29.44,SE,135,58.0,58.0,46,0.00,,BKN023,0.00,VWS V14.01,2013-06-15 17:28:00,
2013-06-15 10:33:00,77.0,53.4,29.44,SE,135,58.0,58.0,44,0.00,,BKN023,0.00,VWS V14.01,2013-06-15 17:33:00,
2013-06-15 10:38:00,77.4,53.8,29.44,SE,135,58.0,58.0,44,0.00,,BKN023,0.00,VWS V14.01,2013-06-15 17:38:00,
2013-06-15 10:43:00,75.9,51.8,29.44,SE,135,58.0,58.0,43,0.00,,BKN023,0.00,VWS V14.01,2013-06-15 17:43:00,
2013-06-15 10:48:00,76.1,51.4,29.44,SE,135,58.0,58.0,42,0.00,,BKN023,0.00,VWS V14.01,2013-06-15 17:48:00,
2013-06-15 10:53:00,77.4,52.5,29.44,SE,135,58.0,58.0,42,0.00,,BKN023,0.00,VWS V14.01,2013-06-15 17:53:00,
2013-06-15 10:58:00,78.6,53.0,29.44,SE,135,58.0,58.0,41,0.00,,BKN023,0.00,VWS V14.01,2013-06-15 17:58:00,
2013-06-15 11:03:00,79.3,53.6,29.44,SE,135,58.0,58.0,41,0.00,,BKN025,0.00,VWS V14.01,2013-06-15 18:03:00,
2013-06-15 11:08:00,79.9,54.1,29.44,SE,135,58.0,58.0,41,0.00,,BKN025,0.00,VWS V14.01,2013-06-15 18:08:00,
2013-06-15 11:13:00,79.9,52.7,29.44,SE,135,58.0,58.0,39,0.00,,BKN025,0.00,VWS V14.01,2013-06-15 18:13:00,
2013-06-15 11:18:00,80.2,52.3,29.41,SE,135,58.0,58.0,38,0.00,,BKN025,0.00,VWS V14.01,2013-06-15 18:18:00,
2013-06-15 11:23:00,81.7,54.3,29.41,SE,135,58.0,58.0,39,0.00,,BKN025,0.00,VWS V14.01,2013-06-15 18:23:00,
2013-06-15 11:28:00,81.3,52.6,29.41,SE,135,58.0,58.0,37,0.00,,BKN025,0.00,VWS V14.01,2013-06-15 18:28:00,
2013-06-15 11:33:00,82.0,52.5,29.41,SE,135,58.0,58.0,36,0.00,,SCT029,0.00,VWS V14.01,2013-06-15 18:33:00,
2013-06-15 11:38:00,82.6,53.0,29.41,SE,135,58.0,58.0,36,0.00,,SCT029,0.00,VWS V14.01,2013-06-15 18:38:00,
2013-06-15 11:43:00,82.8,52.3,29.41,SE,135,58.0,58.0,35,0.00,,SCT029,0.00,VWS V14.01,2013-06-15 18:43:00,
2013-06-15 11:48:00,83.1,52.7,29.41,SE,135,58.0,58.0,35,0.00,,SCT029,0.00,VWS V14.01,2013-06-15 18:48:00,
2013-06-15 11:53:00,83.1,51.9,29.41,SE,135,58.0,58.0,34,0.00,,SCT029,0.00,VWS V14.01,2013-06-15 18:53:00,
2013-06-15 11:58:00,83.5,51.4,29.41,SE,135,58.0,58.0,33,0.00,,SCT029,0.00,VWS V14.01,2013-06-15 18:58:00,
2013-06-15 12:03:00,84.4,53.0,29.41,SE,135,58.0,58.0,34,0.00,,FEW027,0.00,VWS V14.01,2013-06-15 19:03:00,
2013-06-15 12:08:00,84.4,52.2,29.41,SE,135,58.0,58.0,33,0.00,,FEW027,0.00,VWS V14.01,2013-06-15 19:08:00,
2013-06-15 12:13:00,84.0,51.8,29.41,SE,135,58.0,58.0,33,0.00,,FEW027,0.00,VWS V14.01,2013-06-15 19:13:00,
2013-06-15 12:18:00,83.7,50.7,29.41,SE,135,58.0,58.0,32,0.00,,FEW027,0.00,VWS V14.01,2013-06-15 19:18:00,
2013-06-15 12:23:00,82.9,50.9,29.41,SE,135,58.0,58.0,33,0.00,,FEW027,0.00,VWS V14.01,2013-06-15 19:23:00,
2013-06-15 12:28:00,82.9,50.9,29.41,SE,135,58.0,58.0,33,0.00,,FEW027,0.00,VWS V14.01,2013-06-15 19:28:00,
2013-06-15 12:33:00,82.8,50.8,29.41,SE,135,58.0,58.0,33,0.00,,FEW027,0.00,VWS V14.01,2013-06-15 19:33:00,
2013-06-15 12:38:00,82.9,50.9,29.41,SE,135,58.0,58.0,33,0.00,,FEW027,0.00,VWS V14.01,2013-06-15 19:38:00,
2013-06-15 12:43:00,83.5,52.2,29.41,SE,135,58.0,58.0,34,0.00,,FEW027,0.00,VWS V14.01,2013-06-15 19:43:00,
2013-06-15 12:48:00,82.6,49.8,29.41,SE,135,58.0,58.0,32,0.00,,FEW027,0.00,VWS V14.01,2013-06-15 19:48:00,
2013-06-15 12:53:00,82.0,50.1,29.41,SE,135,58.0,58.0,33,0.00,,FEW027,0.00,VWS V14.01,2013-06-15 19:53:00,
2013-06-15 12:58:00,83.7,52.3,29.41,SE,135,58.0,58.0,34,0.00,,FEW027,0.00,VWS V14.01,2013-06-15 19:58:00,
2013-06-15 13:03:00,82.4,50.4,29.41,SE,135,58.0,58.0,33,0.00,,FEW033,0.00,VWS V14.01,2013-06-15 20:03:00,
2013-06-15 13:08:00,82.9,51.7,29.41,SE,135,58.0,58.0,34,0.00,,FEW033,0.00,VWS V14.01,2013-06-15 20:08:00,
2013-06-15 13:13:00,84.6,52.3,29.41,SE,135,58.0,58.0,33,0.00,,FEW033,0.00,VWS V14.01,2013-06-15 20:13:00,
2013-06-15 13:18:00,84.2,51.2,29.41,SE,135,58.0,58.0,32,0.00,,FEW033,0.00,VWS V14.01,2013-06-15 20:18:00,
2013-06-15 13:23:00,82.2,49.5,29.41,SE,135,58.0,58.0,32,0.00,,FEW033,0.00,VWS V14.01,2013-06-15 20:23:00,
2013-06-15 13:28:00,83.5,50.5,29.41,SE,135,58.0,58.0,32,0.00,,FEW033,0.00,VWS V14.01,2013-06-15 20:28:00,
2013-06-15 13:33:00,82.8,49.9,29.41,SE,135,58.0,58.0,32,0.00,,FEW033,0.00,VWS V14.01,2013-06-15 20:33:00,
2013-06-15 13:38:00,84.4,51.3,29.41,SE,135,58.0,58.0,32,0.00,,FEW033,0.00,VWS V14.01,2013-06-15 20:38:00,
2013-06-15 13:43:00,84.7,51.6,29.41,SE,135,58.0,58.0,32,0.00,,FEW033,0.00,VWS V14.01,2013-06-15 20:43:00,
2013-06-15 13:48:00,85.6,52.4,29.41,SE,135,58.0,58.0,32,0.00,,FEW033,0.00,VWS V14.01,2013-06-15 20:48:00,
2013-06-15 13:53:00,84.6,50.6,29.41,SE,135,58.0,58.0,31,0.00,,FEW033,0.00,VWS V14.01,2013-06-15 20:53:00,
2013-06-15 13:58:00,84.0,51.0,29.41,SE,135,58.0,58.0,32,0.00,,FEW033,0.00,VWS V14.01,2013-06-15 20:58:00,
2013-06-15 14:03:00,84.9,50.9,29.41,SE,135,58.0,58.0,31,0.00,,FEW023,0.00,VWS V14.01,2013-06-15 21:03:00,
2013-06-15 14:08:00,84.2,50.3,29.41,SE,135,58.0,58.0,31,0.00,,FEW023,0.00,VWS V14.01,2013-06-15 21:08:00,
2013-06-15 14:13:00,83.7,50.7,29.41,SE,135,58.0,58.0,32,0.00,,FEW023,0.00,VWS V14.01,2013-06-15 21:13:00,
2013-06-15 14:18:00,85.5,51.4,29.38,SE,135,58.0,58.0,31,0.00,,FEW023,0.00,VWS V14.01,2013-06-15 21:18:00,
2013-06-15 14:23:00,84.4,50.5,29.38,SE,135,58.0,58.0,31,0.00,,FEW023,0.00,VWS V14.01,2013-06-15 21:23:00,
2013-06-15 14:28:00,84.4,50.5,29.38,SE,135,58.0,58.0,31,0.00,,FEW023,0.00,VWS V14.01,2013-06-15 21:28:00,
2013-06-15 14:33:00,86.0,51.9,29.38,SE,135,58.0,58.0,31,0.00,,FEW023,0.00,VWS V14.01,2013-06-15 21:33:00,
2013-06-15 14:38:00,85.5,51.4,29.38,SE,135,58.0,58.0,31,0.00,,FEW023,0.00,VWS V14.01,2013-06-15 21:38:00,
2013-06-15 14:43:00,85.1,50.2,29.38,SE,135,58.0,58.0,30,0.00,,FEW023,0.00,VWS V14.01,2013-06-15 21:43:00,
2013-06-15 14:48:00,85.8,51.7,29.38,SE,135,58.0,58.0,31,0.00,,FEW023,0.00,VWS V14.01,2013-06-15 21:48:00,
2013-06-15 14:53:00,85.1,50.2,29.38,SE,135,58.0,58.0,30,0.00,,FEW023,0.00,VWS V14.01,2013-06-15 21:53:00,
2013-06-15 14:58:00,84.7,49.9,29.38,SE,135,58.0,58.0,30,0.00,,FEW023,0.00,VWS V14.01,2013-06-15 21:58:00,
2013-06-15 15:03:00,85.1,51.1,29.38,SE,135,58.0,58.0,31,0.00,,FEW023,0.00,VWS V14.01,2013-06-15 22:03:00,
2013-06-15 15:08:00,85.6,51.6,29.38,SE,135,58.0,58.0,31,0.00,,FEW023,0.00,VWS V14.01,2013-06-15 22:08:00,
2013-06-15 15:13:00,84.2,49.4,29.38,SE,135,58.0,58.0,30,0.00,,FEW023,0.00,VWS V14.01,2013-06-15 22:13:00,
2013-06-15 15:18:00,84.9,50.9,29.38,SE,135,58.0,58.0,31,0.00,,FEW025,0.00,VWS V14.01,2013-06-15 22:18:00,
2013-06-15 15:23:00,84.0,50.2,29.38,SE,135,58.0,58.0,31,0.00,,FEW025,0.00,VWS V14.01,2013-06-15 22:23:00,
2013-06-15 15:28:00,86.0,51.0,29.38,SE,135,58.0,58.0,30,0.00,,FEW025,0.00,VWS V14.01,2013-06-15 22:28:00,
2013-06-15 15:33:00,84.7,49.9,29.38,SE,135,58.0,58.0,30,0.00,,FEW025,0.00,VWS V14.01,2013-06-15 22:33:00,
2013-06-15 15:38:00,86.2,51.1,29.38,SE,135,58.0,58.0,30,0.00,,FEW025,0.00,VWS V14.01,2013-06-15 22:38:00,
2013-06-15 15:43:00,85.5,50.5,29.38,SE,135,58.0,58.0,30,0.00,,FEW025,0.00,VWS V14.01,2013-06-15 22:43:00,
2013-06-15 15:48:00,83.8,49.1,29.38,SE,135,58.0,58.0,30,0.00,,FEW025,0.00,VWS V14.01,2013-06-15 22:48:00,
2013-06-15 15:53:00,84.0,50.2,29.38,SE,135,58.0,58.0,31,0.00,,FEW025,0.00,VWS V14.01,2013-06-15 22:53:00,
2013-06-15 15:58:00,85.6,50.7,29.38,SE,135,58.0,58.0,30,0.00,,FEW025,0.00,VWS V14.01,2013-06-15 22:58:00,
2013-06-15 16:03:00,84.6,49.8,29.38,SE,135,58.0,58.0,30,0.00,,CLR,0.00,VWS V14.01,2013-06-15 23:03:00,
2013-06-15 16:08:00,85.5,50.5,29.38,SE,135,58.0,58.0,30,0.00,,CLR,0.00,VWS V14.01,2013-06-15 23:08:00,
2013-06-15 16:13:00,84.0,49.3,29.38,SE,135,58.0,58.0,30,0.00,,CLR,0.00,VWS V14.01,2013-06-15 23:13:00,
2013-06-15 16:18:00,84.0,50.2,29.35,SE,135,58.0,58.0,31,0.00,,CLR,0.00,VWS V14.01,2013-06-15 23:18:00,
2013-06-15 16:23:00,84.6,49.8,29.35,SE,135,58.0,58.0,30,0.00,,CLR,0.00,VWS V14.01,2013-06-15 23:23:00,
2013-06-15 16:28:00,84.2,49.4,29.35,SE,135,58.0,58.0,30,0.00,,CLR,0.00,VWS V14.01,2013-06-15 23:28:00,
2013-06-15 16:33:00,84.0,50.2,29.38,SE,135,58.0,58.0,31,0.00,,CLR,0.00,VWS V14.01,2013-06-15 23:33:00,
2013-06-15 16:38:00,83.3,49.5,29.38,SE,135,58.0,58.0,31,0.00,,CLR,0.00,VWS V14.01,2013-06-15 23:38:00,
2013-06-15 16:43:00,84.0,50.2,29.38,SE,135,58.0,58.0,31,0.00,,CLR,0.00,VWS V14.01,2013-06-15 23:43:00,
2013-06-15 16:48:00,83.8,50.0,29.38,SE,135,58.0,58.0,31,0.00,,CLR,0.00,VWS V14.01,2013-06-15 23:48:00,
2013-06-15 16:53:00,84.4,50.5,29.38,SE,135,58.0,58.0,31,0.00,,CLR,0.00,VWS V14.01,2013-06-15 23:53:00,
2013-06-15 16:58:00,84.4,50.5,29.38,SE,135,58.0,58.0,31,0.00,,CLR,0.00,VWS V14.01,2013-06-15 23:58:00,
2013-06-15 17:03:00,84.4,50.5,29.38,SE,135,58.0,58.0,31,0.00,,FEW025,0.00,VWS V14.01,2013-06-16 00:03:00,
2013-06-15 17:08:00,84.4,50.5,29.38,SE,135,58.0,58.0,31,0.00,,FEW025,0.00,VWS V14.01,2013-06-16 00:08:00,
2013-06-15 17:13:00,84.4,50.5,29.38,SE,135,58.0,58.0,31,0.00,,FEW025,0.00,VWS V14.01,2013-06-16 00:13:00,
2013-06-15 17:18:00,84.4,50.5,29.38,SE,135,58.0,58.0,31,0.00,,FEW025,0.00,VWS V14.01,2013-06-16 00:18:00,
2013-06-15 17:23:00,84.4,50.5,29.38,SE,135,58.0,58.0,31,0.00,,FEW025,0.00,VWS V14.01,2013-06-16 00:23:00,
2013-06-15 17:28:00,82.9,50.1,29.38,SE,135,58.0,58.0,32,0.00,,FEW025,0.00,VWS V14.01,2013-06-16 00:28:00,
2013-06-15 17:33:00,82.2,50.3,29.38,SE,135,58.0,58.0,33,0.00,,FEW025,0.00,VWS V14.01,2013-06-16 00:33:00,
2013-06-15 17:38:00,81.7,49.8,29.38,SE,135,58.0,58.0,33,0.00,,FEW025,0.00,VWS V14.01,2013-06-16 00:38:00,
2013-06-15 17:43:00,81.1,50.1,29.38,SE,135,58.0,58.0,34,0.00,,FEW025,0.00,VWS V14.01,2013-06-16 00:43:00,
2013-06-15 17:48:00,80.6,50.5,29.38,SE,135,58.0,58.0,35,0.00,,FEW025,0.00,VWS V14.01,2013-06-16 00:48:00,
2013-06-15 17:53:00,80.1,50.7,29.38,SE,135,58.0,58.0,36,0.00,,FEW025,0.00,VWS V14.01,2013-06-16 00:53:00,
2013-06-15 17:58:00,79.2,49.9,29.38,SE,135,58.0,58.0,36,0.00,,FEW025,0.00,VWS V14.01,2013-06-16 00:58:00,
2013-06-15 18:03:00,79.3,50.8,29.38,SE,135,58.0,58.0,37,0.00,,FEW025,0.00,VWS V14.01,2013-06-16 01:03:00,
2013-06-15 18:08:00,78.6,51.6,29.38,SE,135,58.0,58.0,39,0.00,,FEW025,0.00,VWS V14.01,2013-06-16 01:08:00,
2013-06-15 18:13:00,77.0,50.9,29.38,SE,135,58.0,58.0,40,0.00,,FEW025,0.00,VWS V14.01,2013-06-16 01:13:00,
2013-06-15 18:18:00,76.6,51.2,29.38,SE,135,58.0,58.0,41,0.00,,FEW025,0.00,VWS V14.01,2013-06-16 01:18:00,
2013-06-15 18:23:00,76.1,50.7,29.38,SE,135,58.0,58.0,41,0.00,,FEW025,0.00,VWS V14.01,2013-06-16 01:23:00,
2013-06-15 18:28:00,75.2,50.6,29.38,SE,135,58.0,58.0,42,0.00,,FEW025,0.00,VWS V14.01,2013-06-16 01:28:00,
2013-06-15 18:33:00,74.1,50.8,29.38,SE,135,58.0,58.0,44,0.00,,FEW025,0.00,VWS V14.01,2013-06-16 01:33:00,
2013-06-15 18:38:00,73.9,50.1,29.38,SE,135,58.0,58.0,43,0.00,,FEW025,0.00,VWS V14.01,2013-06-16 01:38:00,
2013-06-15 18:43:00,73.0,51.1,29.38,SE,135,58.0,58.0,46,0.00,,FEW025,0.00,VWS V14.01,2013-06-16 01:43:00,
2013-06-15 18:48:00,72.7,50.7,29.38,SE,135,58.0,58.0,46,0.00,,FEW025,0.00,VWS V14.01,2013-06-16 01:48:00,
2013-06-15 18:53:00,72.3,51.5,29.38,SE,135,58.0,58.0,48,0.00,,FEW025,0.00,VWS V14.01,2013-06-16 01:53:00,
2013-06-15 18:58:00,72.3,51.5,29.38,SE,135,58.0,58.0,48,0.00,,FEW025,0.00,VWS V14.01,2013-06-16 01:58:00,
2013-06-15 19:03:00,72.3,51.5,29.38,SE,135,58.0,58.0,48,0.00,,FEW021,0.00,VWS V14.01,2013-06-16 02:03:00,
2013-06-15 19:08:00,70.0,52.6,29.38,SE,135,58.0,58.0,54,0.00,,FEW021,0.00,VWS V14.01,2013-06-16 02:08:00,
2013-06-15 19:13:00,70.0,52.6,29.38,SE,135,58.0,58.0,54,0.00,,FEW021,0.00,VWS V14.01,2013-06-16 02:13:00,
2013-06-15 19:18:00,70.0,52.6,29.38,SE,135,58.0,58.0,54,0.00,,FEW021,0.00,VWS V14.01,2013-06-16 02:18:00,
2013-06-15 19:23:00,70.0,52.6,29.38,SE,135,58.0,58.0,54,0.00,,FEW021,0.00,VWS V14.01,2013-06-16 02:23:00,
2013-06-15 19:28:00,70.0,52.6,29.38,SE,135,58.0,58.0,54,0.00,,FEW021,0.00,VWS V14.01,2013-06-16 02:28:00,
2013-06-15 19:33:00,70.0,52.6,29.35,SE,135,58.0,58.0,54,0.00,,FEW021,0.00,VWS V14.01,2013-06-16 02:33:00,
2013-06-15 19:38:00,70.0,52.6,29.35,SE,135,58.0,58.0,54,0.00,,FEW021,0.00,VWS V14.01,2013-06-16 02:38:00,
2013-06-15 19:43:00,70.0,52.6,29.35,SE,135,58.0,58.0,54,0.00,,FEW021,0.00,VWS V14.01,2013-06-16 02:43:00,
2013-06-15 19:48:00,70.0,52.6,29.38,SE,135,58.0,58.0,54,0.00,,FEW021,0.00,VWS V14.01,2013-06-16 02:48:00,
2013-06-15 19:53:00,66.0,53.5,29.38,SE,135,58.0,58.0,64,0.00,,FEW021,0.00,VWS V14.01,2013-06-16 02:53:00,
2013-06-15 19:58:00,66.0,53.5,29.38,SE,135,58.0,58.0,64,0.00,,FEW021,0.00,VWS V14.01,2013-06-16 02:58:00,
2013-06-15 20:03:00,66.0,53.5,29.38,SE,135,58.0,58.0,64,0.00,,FEW019,0.00,VWS V14.01,2013-06-16 03:03:00,
2013-06-15 20:08:00,66.0,53.5,29.38,SE,135,58.0,58.0,64,0.00,,FEW019,0.00,VWS V14.01,2013-06-16 03:08:00,
2013-06-15 20:13:00,66.0,53.5,29.38,SE,135,58.0,58.0,64,0.00,,FEW019,0.00,VWS V14.01,2013-06-16 03:13:00,
2013-06-15 20:18:00,66.0,53.5,29.38,SE,135,58.0,58.0,64,0.00,,FEW019,0.00,VWS V14.01,2013-06-16 03:18:00,
2013-06-15 20:23:00,66.0,53.5,29.38,SE,135,58.0,58.0,64,0.00,,FEW019,0.00,VWS V14.01,2013-06-16 03:23:00,
2013-06-15 20:28:00,66.0,53.5,29.38,SE,135,58.0,58.0,64,0.00,,FEW019,0.00,VWS V14.01,2013-06-16 03:28:00,
2013-06-15 20:33:00,66.0,53.5,29.38,SE,135,58.0,58.0,64,0.00,,FEW019,0.00,VWS V14.01,2013-06-16 03:33:00,
2013-06-15 20:38:00,66.0,53.5,29.38,SE,135,58.0,58.0,64,0.00,,FEW019,0.00,VWS V14.01,2013-06-16 03:38:00,
2013-06-15 20:43:00,63.5,53.5,29.38,SE,135,58.0,58.0,70,0.00,,FEW019,0.00,VWS V14.01,2013-06-16 03:43:00,
2013-06-15 20:48:00,63.5,53.5,29.41,SE,135,58.0,58.0,70,0.00,,FEW019,0.00,VWS V14.01,2013-06-16 03:48:00,
2013-06-15 20:53:00,63.5,53.5,29.41,SE,135,58.0,58.0,70,0.00,,FEW019,0.00,VWS V14.01,2013-06-16 03:53:00,
2013-06-15 20:58:00,63.5,53.5,29.41,SE,135,58.0,58.0,70,0.00,,FEW019,0.00,VWS V14.01,2013-06-16 03:58:00,
2013-06-15 21:01:00,63.5,53.5,29.41,SE,135,58.0,58.0,70,0.00,,CLR,0.00,VWS V14.01,2013-06-16 04:01:00,
2013-06-15 21:06:00,62.6,53.5,29.41,SE,135,58.0,58.0,72,0.00,,CLR,0.00,VWS V14.01,2013-06-16 04:06:00,
2013-06-15 21:11:00,62.4,53.7,29.41,SE,135,58.0,58.0,73,0.00,,CLR,0.00,VWS V14.01,2013-06-16 04:11:00,
2013-06-15 21:16:00,62.4,53.7,29.41,SE,135,58.0,58.0,73,0.00,,CLR,0.00,VWS V14.01,2013-06-16 04:16:00,
2013-06-15 21:21:00,62.1,53.7,29.41,SE,135,58.0,58.0,74,0.00,,CLR,0.00,VWS V14.01,2013-06-16 04:21:00,
2013-06-15 21:26:00,62.1,53.7,29.41,SE,135,58.0,58.0,74,0.00,,CLR,0.00,VWS V14.01,2013-06-16 04:26:00,
2013-06-15 21:31:00,62.1,53.7,29.41,SE,135,58.0,58.0,74,0.00,,CLR,0.00,VWS V14.01,2013-06-16 04:31:00,
2013-06-15 21:36:00,61.5,53.9,29.41,SE,135,58.0,58.0,76,0.00,,CLR,0.00,VWS V14.01,2013-06-16 04:36:00,
2013-06-15 21:41:00,61.5,53.9,29.41,SE,135,58.0,58.0,76,0.00,,CLR,0.00,VWS V14.01,2013-06-16 04:41:00,
2013-06-15 21:46:00,61.3,54.1,29.41,SE,135,58.0,58.0,77,0.00,,CLR,0.00,VWS V14.01,2013-06-16 04:46:00,
2013-06-15 21:51:00,61.2,53.9,29.41,SE,135,58.0,58.0,77,0.00,,CLR,0.00,VWS V14.01,2013-06-16 04:51:00,
2013-06-15 21:56:00,61.0,54.1,29.41,SE,135,58.0,58.0,78,0.00,,CLR,0.00,VWS V14.01,2013-06-16 04:56:00,
2013-06-15 22:01:00,61.0,54.1,29.44,SE,135,58.0,58.0,78,0.00,,CLR,0.00,VWS V14.01,2013-06-16 05:01:00,
2013-06-15 22:06:00,60.8,54.3,29.44,SE,135,58.0,58.0,79,0.00,,CLR,0.00,VWS V14.01,2013-06-16 05:06:00,
2013-06-15 22:11:00,60.8,54.3,29.44,SE,135,58.0,58.0,79,0.00,,CLR,0.00,VWS V14.01,2013-06-16 05:11:00,
2013-06-15 22:16:00,60.6,54.4,29.44,SE,135,58.0,58.0,80,0.00,,CLR,0.00,VWS V14.01,2013-06-16 05:16:00,
2013-06-15 22:21:00,60.4,54.6,29.44,SE,135,58.0,58.0,81,0.00,,CLR,0.00,VWS V14.01,2013-06-16 05:21:00,
2013-06-15 22:26:00,60.3,54.4,29.44,SE,135,58.0,58.0,81,0.00,,CLR,0.00,VWS V14.01,2013-06-16 05:26:00,
2013-06-15 22:31:00,60.3,54.4,29.44,SE,135,58.0,58.0,81,0.00,,CLR,0.00,VWS V14.01,2013-06-16 05:31:00,
2013-06-15 22:36:00,60.3,54.4,29.44,SE,135,58.0,58.0,81,0.00,,CLR,0.00,VWS V14.01,2013-06-16 05:36:00,
2013-06-15 22:41:00,60.3,54.4,29.44,SE,135,58.0,58.0,81,0.00,,CLR,0.00,VWS V14.01,2013-06-16 05:41:00,
2013-06-15 22:46:00,60.3,54.8,29.44,SE,135,58.0,58.0,82,0.00,,CLR,0.00,VWS V14.01,2013-06-16 05:46:00,
2013-06-15 22:51:00,60.4,54.9,29.44,SE,135,58.0,58.0,82,0.00,,CLR,0.00,VWS V14.01,2013-06-16 05:51:00,
2013-06-15 22:56:00,60.6,55.1,29.44,SE,135,58.0,58.0,82,0.00,,CLR,0.00,VWS V14.01,2013-06-16 05:56:00,
2013-06-15 23:01:00,61.0,55.5,29.41,SE,135,58.0,58.0,82,0.00,,FEW016,0.00,VWS V14.01,2013-06-16 06:01:00,
2013-06-15 23:06:00,61.2,55.6,29.41,SE,135,58.0,58.0,82,0.00,,FEW016,0.00,VWS V14.01,2013-06-16 06:06:00,
2013-06-15 23:11:00,61.5,56.0,29.41,SE,135,58.0,58.0,82,0.00,,FEW016,0.00,VWS V14.01,2013-06-16 06:11:00,
2013-06-15 23:16:00,61.7,56.2,29.44,SE,135,58.0,58.0,82,0.00,,FEW016,0.00,VWS V14.01,2013-06-16 06:16:00,
2013-06-15 23:21:00,61.9,56.0,29.44,SE,135,58.0,58.0,81,0.00,,FEW016,0.00,VWS V14.01,2013-06-16 06:21:00,
2013-06-15 23:26:00,62.1,56.2,29.44,SE,135,58.0,58.0,81,0.00,,FEW016,0.00,VWS V14.01,2013-06-16 06:26:00,
2013-06-15 23:31:00,62.2,56.3,29.44,SE,135,58.0,58.0,81,0.00,,FEW016,0.00,VWS V14.01,2013-06-16 06:31:00,
2013-06-15 23:36:00,62.2,56.3,29.44,SE,135,58.0,58.0,81,0.00,,FEW016,0.00,VWS V14.01,2013-06-16 06:36:00,
2013-06-15 23:41:00,62.4,56.5,29.44,SE,135,58.0,58.0,81,0.00,,FEW016,0.00,VWS V14.01,2013-06-16 06:41:00,
2013-06-15 23:46:00,62.6,56.3,29.44,SE,135,58.0,58.0,80,0.00,,BKN020,0.00,VWS V14.01,2013-06-16 06:46:00,
2013-06-15 23:51:00,62.8,56.5,29.44,SE,135,58.0,58.0,80,0.00,,BKN020,0.00,VWS V14.01,2013-06-16 06:51:00,
2013-06-15 23:56:00,62.8,56.2,29.44,SE,135,58.0,58.0,79,0.00,,BKN020,0.00,VWS V14.01,2013-06-16 06:56:00,